Hauptseite
METAR-TAF:

METAR-TAF

Flughäfen :

Flughafen Djerba

Djerba, Tunesien

Breite: 33-52N, Länge: 010-46E, Höhe: 3 m

Beobachtung

Neuester Wetterbericht von vor 42 Minuten, um 07:00 UTC
Wind 7 kt aus Ost
Temperatur 29°C
Luftfeuchtigkeit 79%
Luftdruck 1011 hPa
Sichtweite 10 km oder mehr
keine Wolken unter 1500 m und keine Kumulonimbus oder Gewitterwolken

METAR: DTTJ 130700Z 10007KT CAVOK 29/25 Q1011

Zeit: 08:42 (07:42 UTC)

Prognose

Neuester Wetterbericht von vor 2 Stunden und 42 Minuten, um 05:00 UTC
Gültige Prognose vom 13 um 06 UTC bis 14 um 06 UTC
Wind 5 kt aus Ost
Sichtweite: 8000 m
Übergehend zu
vom 13 um 10 UTC bis 13 um 12 UTC
Wind 13 kt aus Ost/Nordost
Übergehend zu
vom 13 um 22 UTC bis 13 um 24 UTC
Wind 10 kt aus Südost

TAF: DTTJ 130500Z 1306/1406 10005KT 8000 NSC BECMG 1310/1312 07013KT BECMG 1322/1324 14010KT

Wetterbeobachtungen und Prognosen von mehr als 4000 Flughäfen (METAR und TAF Bericht).

Die verfügbaren Stationen werden durch gelbe und rote Markierungen auf der Karte dargestellt.

Führen Sie die Maus auf sie, um den Namen der Station zu sehen.

Darauf klicken, um die Beobachtung von Wetterbeobachtungen und Prognosen zu sehen.

Um die Karte zu ändern : klicken Sie auf den grünen Tasten mit einem schwarzen Kreuz Zum Vergrößern, auf den grünen Button mit einem Gedankenstrich zu verkleinern, oder auf die grünen Pfeile für benachbarte Karten.


METAR-TAF: